createdAt,value
2023-05-05T00:03:56.004Z,8.96
2023-05-05T00:08:59.211Z,8.94
2023-05-05T00:14:02.104Z,8.90
2023-05-05T00:19:05.620Z,8.87
2023-05-05T00:24:10.364Z,8.85
2023-05-05T00:29:13.783Z,8.82
2023-05-05T00:34:16.685Z,8.78
2023-05-05T00:39:19.888Z,8.75
2023-05-05T00:44:37.332Z,8.70
2023-05-05T00:49:40.242Z,8.65
2023-05-05T00:54:43.345Z,8.61
2023-05-05T00:59:47.062Z,8.57
2023-05-05T01:04:50.269Z,8.53
2023-05-05T01:10:17.976Z,8.50
2023-05-05T01:15:33.527Z,8.47
2023-05-05T01:20:42.389Z,8.44
2023-05-05T01:26:05.935Z,8.42
2023-05-05T01:31:14.130Z,8.39
2023-05-05T01:36:23.001Z,8.36
2023-05-05T01:41:28.601Z,8.34
2023-05-05T01:46:33.351Z,8.31
2023-05-05T01:51:37.063Z,8.29
2023-05-05T01:56:41.100Z,8.25
2023-05-05T02:01:46.138Z,8.21
2023-05-05T02:06:53.309Z,8.18
2023-05-05T02:11:57.985Z,8.14
2023-05-05T02:17:01.610Z,8.11
2023-05-05T02:22:04.612Z,8.07
2023-05-05T02:27:08.338Z,8.03
2023-05-05T02:32:14.916Z,7.97
2023-05-05T02:37:20.179Z,7.90
2023-05-05T02:42:24.002Z,7.84
2023-05-05T02:47:36.948Z,7.78
2023-05-05T02:52:40.145Z,7.73
2023-05-05T02:57:54.099Z,7.69
2023-05-05T03:03:16.607Z,7.63
2023-05-05T03:08:37.175Z,7.55
2023-05-05T03:13:43.112Z,7.49
2023-05-05T03:18:48.815Z,7.43
2023-05-05T03:23:51.817Z,7.39
2023-05-05T03:28:54.819Z,7.36
2023-05-05T03:33:58.231Z,7.34
2023-05-05T03:39:01.334Z,7.32
2023-05-05T03:44:04.644Z,7.31
2023-05-05T03:49:09.294Z,7.31
2023-05-05T03:54:12.187Z,7.32
2023-05-05T03:59:15.097Z,7.36
2023-05-05T04:04:18.141Z,7.38
2023-05-05T04:09:21.201Z,7.41
2023-05-05T04:14:24.207Z,7.45
2023-05-05T04:19:27.315Z,7.46
2023-05-05T04:24:30.213Z,7.50
2023-05-05T04:29:33.217Z,7.55
2023-05-05T04:34:36.544Z,7.60
2023-05-05T04:39:39.649Z,7.62
2023-05-05T04:44:42.836Z,7.59
2023-05-05T04:49:45.947Z,7.56
2023-05-05T04:54:49.051Z,7.61
2023-05-05T04:59:52.050Z,7.74
2023-05-05T05:04:55.058Z,7.97
2023-05-05T05:09:58.583Z,8.35
2023-05-05T05:15:01.685Z,9.11
2023-05-05T05:20:05.341Z,9.37
2023-05-05T05:25:09.164Z,9.74
2023-05-05T05:30:12.537Z,10.45
2023-05-05T05:35:16.848Z,11.36
2023-05-05T05:40:19.815Z,12.23
2023-05-05T05:45:22.866Z,13.22
2023-05-05T05:50:28.822Z,13.60
2023-05-05T05:55:32.090Z,14.08
2023-05-05T06:00:35.250Z,14.47
2023-05-05T06:05:38.768Z,14.35
2023-05-05T06:10:42.399Z,14.41
2023-05-05T06:15:46.759Z,14.78
2023-05-05T06:20:51.267Z,17.07
2023-05-05T06:25:56.177Z,18.23
2023-05-05T06:31:00.035Z,19.29
2023-05-05T06:36:04.298Z,19.92
2023-05-05T06:41:07.781Z,20.53
2023-05-05T06:46:11.506Z,21.39
2023-05-05T06:51:15.985Z,21.80
2023-05-05T06:56:19.762Z,22.35
2023-05-05T07:01:24.030Z,23.33
2023-05-05T07:06:28.845Z,23.92
2023-05-05T07:11:32.261Z,24.25
2023-05-05T07:16:38.023Z,24.49
2023-05-05T07:21:41.546Z,24.78
2023-05-05T07:26:45.157Z,25.00
2023-05-05T07:31:48.372Z,25.11
2023-05-05T07:36:51.792Z,25.37
2023-05-05T07:41:54.780Z,25.73
2023-05-05T07:46:57.781Z,26.34
2023-05-05T07:52:01.016Z,26.59
2023-05-05T07:57:04.210Z,26.65
2023-05-05T08:02:07.453Z,26.65
2023-05-05T08:07:11.135Z,26.02
2023-05-05T08:12:15.460Z,25.78
2023-05-05T08:17:18.783Z,26.05
2023-05-05T08:22:22.420Z,25.68
2023-05-05T08:27:25.804Z,25.21
2023-05-05T08:32:29.895Z,24.87
2023-05-05T08:37:33.588Z,24.91
2023-05-05T08:42:39.017Z,25.15
2023-05-05T08:47:43.823Z,25.53
2023-05-05T08:52:51.228Z,25.66
2023-05-05T08:57:56.528Z,25.55
2023-05-05T09:03:00.358Z,25.92
2023-05-05T09:08:05.702Z,26.20
2023-05-05T09:13:08.836Z,26.46
2023-05-05T09:18:13.245Z,26.38
2023-05-05T09:23:17.478Z,26.13
2023-05-05T09:28:20.703Z,26.24
2023-05-05T09:33:34.048Z,25.89
2023-05-05T09:38:37.238Z,26.09
2023-05-05T09:43:53.043Z,26.71
2023-05-05T09:48:56.041Z,26.63
2023-05-05T09:53:59.251Z,24.84
2023-05-05T09:59:08.808Z,24.11
2023-05-05T10:04:28.691Z,24.07
2023-05-05T10:09:34.572Z,23.23
2023-05-05T10:14:37.896Z,21.72
2023-05-05T10:19:41.628Z,19.86
2023-05-05T10:24:49.520Z,18.86
2023-05-05T10:29:56.108Z,18.09
2023-05-05T10:35:04.140Z,17.52
2023-05-05T10:40:08.862Z,17.20
2023-05-05T10:45:12.158Z,16.85
2023-05-05T10:50:27.493Z,16.82
2023-05-05T10:56:00.098Z,16.57
2023-05-05T11:01:03.960Z,16.42
2023-05-05T11:06:09.895Z,16.12
2023-05-05T11:11:13.285Z,15.85
2023-05-05T11:16:39.369Z,15.89
2023-05-05T11:22:00.253Z,15.98
2023-05-05T11:27:03.665Z,15.95
2023-05-05T11:32:14.244Z,15.84
2023-05-05T11:37:17.766Z,15.89
2023-05-05T11:42:25.365Z,16.06
2023-05-05T11:47:29.115Z,16.14
2023-05-05T11:52:32.192Z,16.18
2023-05-05T11:57:35.195Z,16.24
2023-05-05T12:02:38.289Z,16.16
2023-05-05T12:07:41.519Z,15.86
2023-05-05T12:12:44.567Z,15.82
2023-05-05T12:17:48.370Z,16.11
2023-05-05T12:22:51.555Z,16.07
2023-05-05T12:27:54.660Z,16.05
2023-05-05T12:33:03.808Z,16.27
2023-05-05T12:38:07.005Z,16.45
2023-05-05T12:43:10.107Z,16.53
2023-05-05T12:48:22.895Z,16.47
2023-05-05T12:53:26.573Z,16.33
2023-05-05T12:58:32.025Z,16.40
2023-05-05T13:03:35.305Z,16.28
2023-05-05T13:08:44.958Z,16.15
2023-05-05T13:13:47.996Z,16.16
2023-05-05T13:18:51.418Z,16.16
2023-05-05T13:23:57.339Z,16.26
2023-05-05T13:29:04.688Z,16.25
2023-05-05T13:34:08.007Z,16.29
2023-05-05T13:39:11.612Z,16.17
2023-05-05T13:44:14.821Z,16.09
2023-05-05T13:49:18.246Z,15.96
2023-05-05T13:54:21.571Z,15.76
2023-05-05T13:59:25.982Z,15.66
2023-05-05T14:04:29.052Z,15.57
2023-05-05T14:09:32.139Z,15.63
2023-05-05T14:14:35.707Z,15.66
2023-05-05T14:19:38.721Z,15.72
2023-05-05T14:24:42.377Z,15.62
2023-05-05T14:29:45.852Z,15.50
2023-05-05T14:34:50.415Z,15.37
2023-05-05T14:39:55.265Z,15.27
2023-05-05T14:44:58.433Z,15.09
2023-05-05T14:50:01.858Z,15.01
2023-05-05T14:55:05.488Z,15.07
2023-05-05T15:00:09.696Z,15.15
2023-05-05T15:05:13.146Z,15.15
2023-05-05T15:10:17.291Z,15.11
2023-05-05T15:15:21.397Z,15.05
2023-05-05T15:20:24.478Z,15.02
2023-05-05T15:25:27.785Z,15.04
2023-05-05T15:30:30.994Z,14.92
2023-05-05T15:35:34.508Z,14.89
2023-05-05T15:40:37.743Z,14.88
2023-05-05T15:45:43.690Z,14.84
2023-05-05T15:50:46.592Z,14.84
2023-05-05T15:55:49.605Z,14.77
2023-05-05T16:00:52.596Z,14.56
2023-05-05T16:05:55.906Z,14.36
2023-05-05T16:10:59.021Z,14.16
2023-05-05T16:16:02.368Z,13.94
2023-05-05T16:21:05.634Z,13.77
2023-05-05T16:26:08.947Z,13.65
2023-05-05T16:31:13.715Z,13.55
2023-05-05T16:36:16.998Z,13.45
2023-05-05T16:41:20.525Z,13.37
2023-05-05T16:46:23.575Z,13.29
2023-05-05T16:51:27.338Z,13.17
2023-05-05T16:56:30.239Z,13.05
2023-05-05T17:01:35.193Z,12.90
2023-05-05T17:06:38.439Z,12.75
2023-05-05T17:11:41.730Z,12.57
2023-05-05T17:16:44.989Z,12.38
2023-05-05T17:21:48.338Z,12.19
2023-05-05T17:26:51.427Z,12.01
2023-05-05T17:31:55.472Z,11.83
2023-05-05T17:36:59.080Z,11.68
2023-05-05T17:42:02.300Z,11.53
2023-05-05T17:47:07.950Z,11.38
2023-05-05T17:52:11.000Z,11.24
2023-05-05T17:57:14.161Z,11.10
2023-05-05T18:02:18.335Z,10.93
2023-05-05T18:07:21.396Z,10.78
2023-05-05T18:12:24.518Z,10.62
2023-05-05T18:17:27.816Z,10.46
2023-05-05T18:22:30.817Z,10.27
2023-05-05T18:27:34.642Z,10.10
2023-05-05T18:32:38.306Z,9.95
2023-05-05T18:37:42.660Z,9.82
2023-05-05T18:42:45.811Z,9.69
2023-05-05T18:47:49.255Z,9.55
2023-05-05T18:52:53.143Z,9.41
2023-05-05T18:57:56.178Z,9.25
2023-05-05T19:02:59.537Z,9.10
2023-05-05T19:08:03.405Z,8.94
2023-05-05T19:13:10.209Z,8.78
2023-05-05T19:18:13.510Z,8.64
2023-05-05T19:23:16.992Z,8.51
2023-05-05T19:28:20.209Z,8.40
2023-05-05T19:33:23.920Z,8.29
2023-05-05T19:38:26.937Z,8.19
2023-05-05T19:43:30.138Z,8.09
2023-05-05T19:48:34.163Z,7.99
2023-05-05T19:53:38.023Z,7.90
2023-05-05T19:58:54.813Z,7.82
2023-05-05T20:03:58.182Z,7.72
2023-05-05T20:09:02.679Z,7.61
2023-05-05T20:14:06.247Z,7.49
2023-05-05T20:19:09.691Z,7.39
2023-05-05T20:24:13.106Z,7.31
2023-05-05T20:29:17.163Z,7.22
2023-05-05T20:34:20.869Z,7.13
2023-05-05T20:39:23.981Z,7.06
2023-05-05T20:44:27.696Z,6.99
2023-05-05T20:49:31.092Z,6.88
2023-05-05T20:54:34.515Z,6.78
2023-05-05T20:59:38.306Z,6.67
2023-05-05T21:04:41.842Z,6.56
2023-05-05T21:09:48.119Z,6.44
2023-05-05T21:14:51.453Z,6.34
2023-05-05T21:19:57.813Z,6.25
2023-05-05T21:25:14.229Z,6.17
2023-05-05T21:30:17.628Z,6.08
2023-05-05T21:35:21.476Z,6.00
2023-05-05T21:40:24.484Z,5.94
2023-05-05T21:45:27.987Z,5.86
2023-05-05T21:50:31.107Z,5.80
2023-05-05T21:55:34.298Z,5.75
2023-05-05T22:00:37.402Z,5.72
2023-05-05T22:05:40.404Z,5.70
2023-05-05T22:10:43.511Z,5.69
2023-05-05T22:15:47.678Z,5.68
2023-05-05T22:20:51.566Z,5.64
2023-05-05T22:25:54.776Z,5.58
2023-05-05T22:30:57.841Z,5.51
2023-05-05T22:36:00.983Z,5.43
2023-05-05T22:41:04.089Z,5.36
2023-05-05T22:46:07.411Z,5.27
2023-05-05T22:51:10.400Z,5.18
2023-05-05T22:56:13.509Z,5.10
2023-05-05T23:01:19.546Z,5.03
2023-05-05T23:06:22.796Z,4.98
2023-05-05T23:11:26.209Z,4.91
2023-05-05T23:16:31.902Z,4.81
2023-05-05T23:21:45.426Z,4.72
2023-05-05T23:26:52.835Z,4.65
2023-05-05T23:31:56.038Z,4.58
2023-05-05T23:36:59.037Z,4.51
2023-05-05T23:42:02.138Z,4.45
2023-05-05T23:47:05.160Z,4.39
2023-05-05T23:52:08.155Z,4.35
2023-05-05T23:57:11.250Z,4.31
